sensor_id;sensor_type;location;lat;lon;timestamp;pressure;altitude;pressure_sealevel;temperature;humidity
74544;BME280;63016;55.030;38.710;2023-12-22T00:00:35;97923.03;;;2.92;67.91
74544;BME280;63016;55.030;38.710;2023-12-22T00:03:01;97918.22;;;2.89;68.29
74544;BME280;63016;55.030;38.710;2023-12-22T00:05:26;97919.19;;;2.88;68.08
74544;BME280;63016;55.030;38.710;2023-12-22T00:07:52;97917.72;;;2.85;68.12
74544;BME280;63016;55.030;38.710;2023-12-22T00:10:17;97918.88;;;2.82;68.09
74544;BME280;63016;55.030;38.710;2023-12-22T00:12:43;97916.78;;;2.78;67.86
74544;BME280;63016;55.030;38.710;2023-12-22T00:15:08;97922.75;;;2.78;68.12
74544;BME280;63016;55.030;38.710;2023-12-22T00:17:34;97915.34;;;2.75;68.26
74544;BME280;63016;55.030;38.710;2023-12-22T00:19:59;97924.38;;;2.71;68.04
74544;BME280;63016;55.030;38.710;2023-12-22T00:22:29;97918.56;;;2.69;68.04
74544;BME280;63016;55.030;38.710;2023-12-22T00:24:55;97921.94;;;2.70;68.62
74544;BME280;63016;55.030;38.710;2023-12-22T00:27:20;97914.56;;;2.67;68.06
74544;BME280;63016;55.030;38.710;2023-12-22T00:29:46;97919.53;;;2.68;68.04
74544;BME280;63016;55.030;38.710;2023-12-22T00:32:11;97913.47;;;2.61;68.26
74544;BME280;63016;55.030;38.710;2023-12-22T00:34:37;97913.09;;;2.64;67.96
74544;BME280;63016;55.030;38.710;2023-12-22T00:37:02;97913.94;;;2.56;68.31
74544;BME280;63016;55.030;38.710;2023-12-22T00:39:30;97912.97;;;2.57;68.04
74544;BME280;63016;55.030;38.710;2023-12-22T00:41:56;97912.16;;;2.57;68.28
74544;BME280;63016;55.030;38.710;2023-12-22T00:44:21;97908.94;;;2.55;68.33
74544;BME280;63016;55.030;38.710;2023-12-22T00:46:46;97910.88;;;2.53;68.29
74544;BME280;63016;55.030;38.710;2023-12-22T00:49:12;97905.25;;;2.49;68.31
74544;BME280;63016;55.030;38.710;2023-12-22T00:51:37;97905.25;;;2.49;68.48
74544;BME280;63016;55.030;38.710;2023-12-22T00:54:03;97912.16;;;2.49;67.96
74544;BME280;63016;55.030;38.710;2023-12-22T00:56:28;97904.63;;;2.47;68.10
74544;BME280;63016;55.030;38.710;2023-12-22T00:58:54;97900.75;;;2.43;68.30
74544;BME280;63016;55.030;38.710;2023-12-22T01:01:19;97901.88;;;2.41;67.97
74544;BME280;63016;55.030;38.710;2023-12-22T01:03:46;97905.41;;;2.40;68.25
74544;BME280;63016;55.030;38.710;2023-12-22T01:06:11;97897.22;;;2.36;68.07
74544;BME280;63016;55.030;38.710;2023-12-22T01:08:37;97901.41;;;2.37;67.94
74544;BME280;63016;55.030;38.710;2023-12-22T01:11:03;97896.41;;;2.36;68.17
74544;BME280;63016;55.030;38.710;2023-12-22T01:13:28;97906.06;;;2.34;68.18
74544;BME280;63016;55.030;38.710;2023-12-22T01:15:54;97900.44;;;2.30;68.05
74544;BME280;63016;55.030;38.710;2023-12-22T01:18:19;97886.47;;;2.24;68.03
74544;BME280;63016;55.030;38.710;2023-12-22T01:20:45;97883.56;;;2.27;68.23
74544;BME280;63016;55.030;38.710;2023-12-22T01:23:11;97881.47;;;2.23;67.93
74544;BME280;63016;55.030;38.710;2023-12-22T01:25:36;97881.78;;;2.20;68.13
74544;BME280;63016;55.030;38.710;2023-12-22T01:28:02;97890.16;;;2.22;67.84
74544;BME280;63016;55.030;38.710;2023-12-22T01:30:27;97886.94;;;2.20;68.11
74544;BME280;63016;55.030;38.710;2023-12-22T01:32:53;97889.50;;;2.20;68.24
74544;BME280;63016;55.030;38.710;2023-12-22T01:35:18;97888.06;;;2.17;67.97
74544;BME280;63016;55.030;38.710;2023-12-22T01:37:44;97906.41;;;2.14;68.25
74544;BME280;63016;55.030;38.710;2023-12-22T01:40:09;97896.13;;;2.14;68.09
74544;BME280;63016;55.030;38.710;2023-12-22T01:42:35;97893.84;;;2.11;67.74
74544;BME280;63016;55.030;38.710;2023-12-22T01:45:00;97890.78;;;2.08;67.83
74544;BME280;63016;55.030;38.710;2023-12-22T01:47:26;97900.28;;;2.07;67.82
74544;BME280;63016;55.030;38.710;2023-12-22T01:49:52;97906.69;;;2.03;68.12
74544;BME280;63016;55.030;38.710;2023-12-22T01:52:18;97895.78;;;2.01;68.16
74544;BME280;63016;55.030;38.710;2023-12-22T01:54:44;97896.75;;;2.00;68.43
74544;BME280;63016;55.030;38.710;2023-12-22T01:57:11;97899.50;;;1.98;67.78
74544;BME280;63016;55.030;38.710;2023-12-22T01:59:39;97896.09;;;1.98;67.79
74544;BME280;63016;55.030;38.710;2023-12-22T02:02:04;97888.84;;;1.93;68.21
74544;BME280;63016;55.030;38.710;2023-12-22T02:04:31;97906.53;;;1.96;68.03
74544;BME280;63016;55.030;38.710;2023-12-22T02:06:58;97903.47;;;1.93;67.96
74544;BME280;63016;55.030;38.710;2023-12-22T02:09:26;97903.34;;;1.94;68.23
74544;BME280;63016;55.030;38.710;2023-12-22T02:11:51;97894.00;;;1.93;68.06
74544;BME280;63016;55.030;38.710;2023-12-22T02:14:17;97892.72;;;1.89;67.98
74544;BME280;63016;55.030;38.710;2023-12-22T02:16:46;97896.25;;;1.88;67.70
74544;BME280;63016;55.030;38.710;2023-12-22T02:22:07;97891.56;;;1.84;67.77
74544;BME280;63016;55.030;38.710;2023-12-22T02:24:33;97892.72;;;1.81;67.67
74544;BME280;63016;55.030;38.710;2023-12-22T02:29:36;97884.19;;;1.72;68.24
74544;BME280;63016;55.030;38.710;2023-12-22T02:32:07;97891.09;;;1.72;68.43
74544;BME280;63016;55.030;38.710;2023-12-22T02:34:35;97890.47;;;1.70;68.08
74544;BME280;63016;55.030;38.710;2023-12-22T02:37:05;97882.56;;;1.71;68.13
74544;BME280;63016;55.030;38.710;2023-12-22T02:39:32;97873.25;;;1.70;68.03
74544;BME280;63016;55.030;38.710;2023-12-22T02:41:59;97870.03;;;1.68;67.83
74544;BME280;63016;55.030;38.710;2023-12-22T02:44:25;97873.56;;;1.67;68.32
74544;BME280;63016;55.030;38.710;2023-12-22T02:46:51;97867.13;;;1.63;68.22
74544;BME280;63016;55.030;38.710;2023-12-22T02:49:17;97863.59;;;1.64;67.79
74544;BME280;63016;55.030;38.710;2023-12-22T02:51:44;97867.13;;;1.63;67.66
74544;BME280;63016;55.030;38.710;2023-12-22T02:54:10;97868.09;;;1.62;68.23
74544;BME280;63016;55.030;38.710;2023-12-22T02:56:35;97876.94;;;1.60;67.76
74544;BME280;63016;55.030;38.710;2023-12-22T02:59:01;97870.19;;;1.59;67.63
74544;BME280;63016;55.030;38.710;2023-12-22T03:01:26;97868.56;;;1.58;67.94
74544;BME280;63016;55.030;38.710;2023-12-22T03:03:52;97866.16;;;1.56;68.04
74544;BME280;63016;55.030;38.710;2023-12-22T03:06:17;97863.59;;;1.56;68.07
74544;BME280;63016;55.030;38.710;2023-12-22T03:08:42;97864.22;;;1.58;68.44
74544;BME280;63016;55.030;38.710;2023-12-22T03:11:08;97857.66;;;1.56;68.04
74544;BME280;63016;55.030;38.710;2023-12-22T03:13:33;97870.19;;;1.59;68.28
74544;BME280;63016;55.030;38.710;2023-12-22T03:15:59;97864.22;;;1.58;68.06
74544;BME280;63016;55.030;38.710;2023-12-22T03:18:24;97864.41;;;1.57;68.37
74544;BME280;63016;55.030;38.710;2023-12-22T03:20:50;97862.63;;;1.57;68.00
74544;BME280;63016;55.030;38.710;2023-12-22T03:23:16;97860.22;;;1.56;68.27
74544;BME280;63016;55.030;38.710;2023-12-22T03:25:42;97857.78;;;1.54;68.06
74544;BME280;63016;55.030;38.710;2023-12-22T03:28:07;97856.19;;;1.53;67.99
74544;BME280;63016;55.030;38.710;2023-12-22T03:30:33;97863.09;;;1.52;68.57
74544;BME280;63016;55.030;38.710;2023-12-22T03:33:00;97862.13;;;1.53;67.95
74544;BME280;63016;55.030;38.710;2023-12-22T03:35:26;97854.59;;;1.52;68.51
74544;BME280;63016;55.030;38.710;2023-12-22T03:37:52;97857.16;;;1.52;68.06
74544;BME280;63016;55.030;38.710;2023-12-22T03:40:17;97865.03;;;1.50;68.49
74544;BME280;63016;55.030;38.710;2023-12-22T03:42:43;97860.84;;;1.49;68.30
74544;BME280;63016;55.030;38.710;2023-12-22T03:45:08;97854.09;;;1.48;68.24
74544;BME280;63016;55.030;38.710;2023-12-22T03:47:34;97846.25;;;1.50;68.26
74544;BME280;63016;55.030;38.710;2023-12-22T03:49:59;97843.00;;;1.48;68.56
74544;BME280;63016;55.030;38.710;2023-12-22T03:52:25;97852.03;;;1.52;68.59
74544;BME280;63016;55.030;38.710;2023-12-22T03:54:50;97854.59;;;1.52;68.26
74544;BME280;63016;55.030;38.710;2023-12-22T03:57:16;97858.75;;;1.53;68.32
74544;BME280;63016;55.030;38.710;2023-12-22T03:59:41;97854.59;;;1.52;68.35
74544;BME280;63016;55.030;38.710;2023-12-22T04:02:08;97861.16;;;1.54;68.30
74544;BME280;63016;55.030;38.710;2023-12-22T04:04:37;97854.13;;;1.57;68.63
74544;BME280;63016;55.030;38.710;2023-12-22T04:07:03;97845.59;;;1.56;68.49
74544;BME280;63016;55.030;38.710;2023-12-22T04:09:28;97845.75;;;1.54;68.45
74544;BME280;63016;55.030;38.710;2023-12-22T04:11:54;97859.44;;;1.55;68.64
74544;BME280;63016;55.030;38.710;2023-12-22T04:14:19;97858.59;;;1.54;68.12
74544;BME280;63016;55.030;38.710;2023-12-22T04:16:45;97851.06;;;1.53;68.62
74544;BME280;63016;55.030;38.710;2023-12-22T04:19:10;97844.94;;;1.54;68.88
74544;BME280;63016;55.030;38.710;2023-12-22T04:21:36;97837.25;;;1.54;68.74
74544;BME280;63016;55.030;38.710;2023-12-22T04:24:02;97842.38;;;1.54;68.72
74544;BME280;63016;55.030;38.710;2023-12-22T04:26:27;97843.19;;;1.54;68.62
74544;BME280;63016;55.030;38.710;2023-12-22T04:28:53;97836.44;;;1.53;68.07
74544;BME280;63016;55.030;38.710;2023-12-22T04:31:18;97838.38;;;1.51;68.02
74544;BME280;63016;55.030;38.710;2023-12-22T04:33:44;97837.41;;;1.52;68.68
74544;BME280;63016;55.030;38.710;2023-12-22T04:36:09;97836.59;;;1.52;68.63
74544;BME280;63016;55.030;38.710;2023-12-22T04:38:35;97833.22;;;1.51;68.21
74544;BME280;63016;55.030;38.710;2023-12-22T04:41:00;97824.06;;;1.49;68.45
74544;BME280;63016;55.030;38.710;2023-12-22T04:43:26;97837.06;;;1.47;67.94
74544;BME280;63016;55.030;38.710;2023-12-22T04:45:51;97833.53;;;1.48;68.69
74544;BME280;63016;55.030;38.710;2023-12-22T04:48:17;97845.59;;;1.48;68.35
74544;BME280;63016;55.030;38.710;2023-12-22T04:50:42;97832.91;;;1.46;68.78
74544;BME280;63016;55.030;38.710;2023-12-22T04:53:08;97836.28;;;1.47;68.25
74544;BME280;63016;55.030;38.710;2023-12-22T04:55:33;97831.63;;;1.50;68.55
74544;BME280;63016;55.030;38.710;2023-12-22T04:57:58;97830.84;;;1.50;68.79
74544;BME280;63016;55.030;38.710;2023-12-22T05:00:25;97818.13;;;1.48;68.33
74544;BME280;63016;55.030;38.710;2023-12-22T05:02:51;97810.88;;;1.44;68.40
74544;BME280;63016;55.030;38.710;2023-12-22T05:05:17;97808.81;;;1.47;68.55
74544;BME280;63016;55.030;38.710;2023-12-22T05:07:42;97826.50;;;1.50;68.90
74544;BME280;63016;55.030;38.710;2023-12-22T05:10:08;97825.69;;;1.50;68.89
74544;BME280;63016;55.030;38.710;2023-12-22T05:12:34;97832.09;;;1.54;68.97
74544;BME280;63016;55.030;38.710;2023-12-22T05:14:59;97823.59;;;1.53;68.78
74544;BME280;63016;55.030;38.710;2023-12-22T05:17:25;97826.97;;;1.54;68.19
74544;BME280;63016;55.030;38.710;2023-12-22T05:19:50;97822.16;;;1.51;68.15
74544;BME280;63016;55.030;38.710;2023-12-22T05:22:16;97834.66;;;1.54;68.75
74544;BME280;63016;55.030;38.710;2023-12-22T05:24:41;97824.06;;;1.49;68.43
74544;BME280;63016;55.030;38.710;2023-12-22T05:27:07;97817.66;;;1.53;68.86
74544;BME280;63016;55.030;38.710;2023-12-22T05:29:33;97824.56;;;1.52;68.88
74544;BME280;63016;55.030;38.710;2023-12-22T05:31:58;97828.59;;;1.55;69.03
74544;BME280;63016;55.030;38.710;2023-12-22T05:34:25;97825.06;;;1.56;68.63
74544;BME280;63016;55.030;38.710;2023-12-22T05:36:50;97831.78;;;1.57;68.88
74544;BME280;63016;55.030;38.710;2023-12-22T05:39:15;97834.84;;;1.61;68.93
74544;BME280;63016;55.030;38.710;2023-12-22T05:41:41;97835.81;;;1.60;68.74
74544;BME280;63016;55.030;38.710;2023-12-22T05:44:07;97824.88;;;1.58;69.07
74544;BME280;63016;55.030;38.710;2023-12-22T05:46:38;97830.50;;;1.61;68.41
74544;BME280;63016;55.030;38.710;2023-12-22T05:49:04;97844.97;;;1.62;68.87
74544;BME280;63016;55.030;38.710;2023-12-22T05:51:36;97832.28;;;1.61;68.76
74544;BME280;63016;55.030;38.710;2023-12-22T05:54:02;97835.81;;;1.60;68.62
74544;BME280;63016;55.030;38.710;2023-12-22T05:56:27;97844.16;;;1.62;68.60
74544;BME280;63016;55.030;38.710;2023-12-22T05:58:53;97839.81;;;1.62;68.77
74544;BME280;63016;55.030;38.710;2023-12-22T06:01:18;97830.81;;;1.58;68.51
74544;BME280;63016;55.030;38.710;2023-12-22T06:03:45;97839.34;;;1.59;68.08
74544;BME280;63016;55.030;38.710;2023-12-22T06:06:11;97835.97;;;1.58;68.54
74544;BME280;63016;55.030;38.710;2023-12-22T06:08:37;97830.81;;;1.58;68.64
74544;BME280;63016;55.030;38.710;2023-12-22T06:11:03;97835.66;;;1.61;68.89
74544;BME280;63016;55.030;38.710;2023-12-22T06:13:29;97834.34;;;1.57;68.93
74544;BME280;63016;55.030;38.710;2023-12-22T06:15:54;97837.41;;;1.61;68.96
74544;BME280;63016;55.030;38.710;2023-12-22T06:18:20;97829.53;;;1.62;68.88
74544;BME280;63016;55.030;38.710;2023-12-22T06:20:45;97839.81;;;1.62;68.29
74544;BME280;63016;55.030;38.710;2023-12-22T06:23:11;97839.81;;;1.62;68.88
74544;BME280;63016;55.030;38.710;2023-12-22T06:25:36;97833.72;;;1.63;68.49
74544;BME280;63016;55.030;38.710;2023-12-22T06:28:02;97831.16;;;1.63;68.98
74544;BME280;63016;55.030;38.710;2023-12-22T06:30:28;97831.16;;;1.63;69.02
74544;BME280;63016;55.030;38.710;2023-12-22T06:32:54;97826.66;;;1.65;68.38
74544;BME280;63016;55.030;38.710;2023-12-22T06:35:19;97832.75;;;1.64;68.89
74544;BME280;63016;55.030;38.710;2023-12-22T06:37:49;97841.91;;;1.67;68.69
74544;BME280;63016;55.030;38.710;2023-12-22T06:40:15;97845.28;;;1.67;68.79
74544;BME280;63016;55.030;38.710;2023-12-22T06:42:41;97829.25;;;1.65;68.91
74544;BME280;63016;55.030;38.710;2023-12-22T06:45:06;97840.63;;;1.63;68.77
74544;BME280;63016;55.030;38.710;2023-12-22T06:47:32;97839.03;;;1.70;68.91
74544;BME280;63016;55.030;38.710;2023-12-22T06:49:58;97850.13;;;1.70;69.19
74544;BME280;63016;55.030;38.710;2023-12-22T06:52:24;97848.84;;;1.74;68.92
74544;BME280;63016;55.030;38.710;2023-12-22T06:54:49;97838.56;;;1.74;69.09
74544;BME280;63016;55.030;38.710;2023-12-22T06:57:15;97842.75;;;1.75;68.43
74544;BME280;63016;55.030;38.710;2023-12-22T06:59:41;97835.66;;;1.77;69.01
74544;BME280;63016;55.030;38.710;2023-12-22T07:02:07;97842.25;;;1.80;69.40
74544;BME280;63016;55.030;38.710;2023-12-22T07:07:46;97833.72;;;1.88;69.13
74544;BME280;63016;55.030;38.710;2023-12-22T07:10:11;97836.31;;;1.88;68.78
74544;BME280;63016;55.030;38.710;2023-12-22T07:12:38;97832.78;;;1.89;68.97
74544;BME280;63016;55.030;38.710;2023-12-22T07:15:05;97840.34;;;1.90;69.09
74544;BME280;63016;55.030;38.710;2023-12-22T07:17:32;97835.00;;;1.92;69.16
74544;BME280;63016;55.030;38.710;2023-12-22T07:19:58;97832.28;;;1.93;69.13
74544;BME280;63016;55.030;38.710;2023-12-22T07:22:23;97839.84;;;1.95;68.88
74544;BME280;63016;55.030;38.710;2023-12-22T07:24:49;97834.72;;;1.95;68.74
74544;BME280;63016;55.030;38.710;2023-12-22T07:27:17;97833.09;;;1.94;68.97
74544;BME280;63016;55.030;38.710;2023-12-22T07:29:42;97840.78;;;2.02;68.89
74544;BME280;63016;55.030;38.710;2023-12-22T07:32:08;97840.47;;;2.05;69.29
74544;BME280;63016;55.030;38.710;2023-12-22T07:34:33;97833.41;;;2.07;69.36
74544;BME280;63016;55.030;38.710;2023-12-22T07:36:58;97836.63;;;2.09;68.92
74544;BME280;63016;55.030;38.710;2023-12-22T07:39:24;97841.44;;;2.12;68.92
74544;BME280;63016;55.030;38.710;2023-12-22T07:41:49;97841.28;;;2.14;69.04
74544;BME280;63016;55.030;38.710;2023-12-22T07:44:15;97837.09;;;2.13;68.78
74544;BME280;63016;55.030;38.710;2023-12-22T07:46:41;97835.81;;;2.17;68.90
74544;BME280;63016;55.030;38.710;2023-12-22T07:49:06;97820.53;;;2.15;68.75
74544;BME280;63016;55.030;38.710;2023-12-22T07:51:32;97820.38;;;2.17;68.76
74544;BME280;63016;55.030;38.710;2023-12-22T07:53:58;97816.19;;;2.16;68.52
74544;BME280;63016;55.030;38.710;2023-12-22T07:56:24;97817.66;;;2.18;69.22
74544;BME280;63016;55.030;38.710;2023-12-22T07:58:49;97817.47;;;2.20;69.03
74544;BME280;63016;55.030;38.710;2023-12-22T08:01:15;97816.34;;;2.22;69.56
74544;BME280;63016;55.030;38.710;2023-12-22T08:03:40;97818.41;;;2.27;69.01
74544;BME280;63016;55.030;38.710;2023-12-22T08:06:06;97818.09;;;2.30;69.37
74544;BME280;63016;55.030;38.710;2023-12-22T08:08:32;97814.56;;;2.31;68.79
74544;BME280;63016;55.030;38.710;2023-12-22T08:10:59;97823.72;;;2.34;69.17
74544;BME280;63016;55.030;38.710;2023-12-22T08:13:24;97822.59;;;2.36;69.01
74544;BME280;63016;55.030;38.710;2023-12-22T08:15:50;97823.88;;;2.40;69.27
74544;BME280;63016;55.030;38.710;2023-12-22T08:18:16;97814.84;;;2.44;68.96
74544;BME280;63016;55.030;38.710;2023-12-22T08:20:41;97806.97;;;2.46;69.18
74544;BME280;63016;55.030;38.710;2023-12-22T08:23:07;97799.91;;;2.48;69.16
74544;BME280;63016;55.030;38.710;2023-12-22T08:25:32;97788.44;;;2.50;68.76
74544;BME280;63016;55.030;38.710;2023-12-22T08:27:58;97790.53;;;2.55;68.91
74544;BME280;63016;55.030;38.710;2023-12-22T08:30:23;97792.47;;;2.53;69.10
74544;BME280;63016;55.030;38.710;2023-12-22T08:32:50;97786.19;;;2.55;69.20
74544;BME280;63016;55.030;38.710;2023-12-22T08:35:15;97778.31;;;2.57;69.00
74544;BME280;63016;55.030;38.710;2023-12-22T08:37:42;97782.31;;;2.60;69.16
74544;BME280;63016;55.030;38.710;2023-12-22T08:40:08;97788.72;;;2.64;69.19
74544;BME280;63016;55.030;38.710;2023-12-22T08:42:33;97782.78;;;2.63;68.92
74544;BME280;63016;55.030;38.710;2023-12-22T08:44:59;97781.47;;;2.67;69.46
74544;BME280;63016;55.030;38.710;2023-12-22T08:47:24;97778.22;;;2.73;69.02
74544;BME280;63016;55.030;38.710;2023-12-22T08:49:50;97778.84;;;2.75;69.06
74544;BME280;63016;55.030;38.710;2023-12-22T08:52:16;97779.50;;;2.77;69.19
74544;BME280;63016;55.030;38.710;2023-12-22T08:54:41;97782.69;;;2.79;69.02
74544;BME280;63016;55.030;38.710;2023-12-22T08:57:07;97778.34;;;2.80;68.85
74544;BME280;63016;55.030;38.710;2023-12-22T08:59:34;97771.47;;;2.80;68.98
74544;BME280;63016;55.030;38.710;2023-12-22T09:01:59;97770.13;;;2.84;69.08
74544;BME280;63016;55.030;38.710;2023-12-22T09:04:25;97760.78;;;2.83;69.14
74544;BME280;63016;55.030;38.710;2023-12-22T09:06:50;97754.34;;;2.88;69.17
74544;BME280;63016;55.030;38.710;2023-12-22T09:09:16;97764.31;;;2.91;69.49
74544;BME280;63016;55.030;38.710;2023-12-22T09:11:41;97760.94;;;2.90;69.37
74544;BME280;63016;55.030;38.710;2023-12-22T09:14:07;97749.50;;;2.93;69.27
74544;BME280;63016;55.030;38.710;2023-12-22T09:16:39;97760.41;;;2.95;69.45
74544;BME280;63016;55.030;38.710;2023-12-22T09:19:04;97762.84;;;2.96;69.16
74544;BME280;63016;55.030;38.710;2023-12-22T09:21:30;97754.13;;;2.97;69.08
74544;BME280;63016;55.030;38.710;2023-12-22T09:23:55;97763.81;;;2.95;68.71
74544;BME280;63016;55.030;38.710;2023-12-22T09:26:21;97755.44;;;2.93;68.88
74544;BME280;63016;55.030;38.710;2023-12-22T09:28:47;97753.66;;;2.94;69.11
74544;BME280;63016;55.030;38.710;2023-12-22T09:31:12;97757.50;;;2.98;69.11
74544;BME280;63016;55.030;38.710;2023-12-22T09:33:39;97742.06;;;2.98;69.03
74544;BME280;63016;55.030;38.710;2023-12-22T09:36:05;97746.88;;;3.01;69.21
74544;BME280;63016;55.030;38.710;2023-12-22T09:38:31;97745.72;;;3.03;69.19
74544;BME280;63016;55.030;38.710;2023-12-22T09:40:57;97752.66;;;3.03;68.81
74544;BME280;63016;55.030;38.710;2023-12-22T09:43:23;97741.53;;;3.02;68.84
74544;BME280;63016;55.030;38.710;2023-12-22T09:45:49;97750.06;;;3.03;68.93
74544;BME280;63016;55.030;38.710;2023-12-22T09:48:17;97753.44;;;3.03;68.70
74544;BME280;63016;55.030;38.710;2023-12-22T09:50:43;97747.69;;;3.01;68.77
74544;BME280;63016;55.030;38.710;2023-12-22T09:53:12;97756.03;;;3.03;68.57
74544;BME280;63016;55.030;38.710;2023-12-22T09:55:40;97752.66;;;3.03;68.76
74544;BME280;63016;55.030;38.710;2023-12-22T09:58:08;97744.91;;;3.03;68.75
74544;BME280;63016;55.030;38.710;2023-12-22T10:00:36;97746.69;;;3.02;68.73
74544;BME280;63016;55.030;38.710;2023-12-22T10:03:06;97745.91;;;3.02;68.88
74544;BME280;63016;55.030;38.710;2023-12-22T10:05:31;97752.03;;;3.01;68.58
74544;BME280;63016;55.030;38.710;2023-12-22T10:08:00;97746.22;;;2.99;68.68
74544;BME280;63016;55.030;38.710;2023-12-22T10:10:28;97746.41;;;2.97;68.84
74544;BME280;63016;55.030;38.710;2023-12-22T10:12:58;97733.84;;;2.94;68.70
74544;BME280;63016;55.030;38.710;2023-12-22T10:15:24;97733.53;;;2.97;68.65
74544;BME280;63016;55.030;38.710;2023-12-22T10:17:52;97732.91;;;2.95;68.50
74544;BME280;63016;55.030;38.710;2023-12-22T10:20:18;97735.81;;;2.92;68.70
74544;BME280;63016;55.030;38.710;2023-12-22T10:22:43;97733.72;;;2.96;68.90
74544;BME280;63016;55.030;38.710;2023-12-22T10:25:09;97743.03;;;2.97;68.68
74544;BME280;63016;55.030;38.710;2023-12-22T10:27:37;97723.69;;;3.01;69.22
74544;BME280;63016;55.030;38.710;2023-12-22T10:30:03;97721.91;;;3.01;68.92
74544;BME280;63016;55.030;38.710;2023-12-22T10:32:29;97720.13;;;3.02;68.90
74544;BME280;63016;55.030;38.710;2023-12-22T10:34:55;97708.56;;;2.98;68.54
74544;BME280;63016;55.030;38.710;2023-12-22T10:37:22;97712.59;;;3.00;68.99
74544;BME280;63016;55.030;38.710;2023-12-22T10:39:54;97717.88;;;2.99;68.83
74544;BME280;63016;55.030;38.710;2023-12-22T10:42:20;97715.31;;;2.99;68.86
74544;BME280;63016;55.030;38.710;2023-12-22T10:44:46;97702.44;;;2.99;68.86
74544;BME280;63016;55.030;38.710;2023-12-22T10:47:13;97709.72;;;2.95;68.41
74544;BME280;63016;55.030;38.710;2023-12-22T10:49:39;97702.16;;;2.94;68.68
74544;BME280;63016;55.030;38.710;2023-12-22T10:52:04;97703.75;;;2.95;68.90
74544;BME280;63016;55.030;38.710;2023-12-22T10:54:30;97704.09;;;2.92;68.69
74544;BME280;63016;55.030;38.710;2023-12-22T10:56:59;97701.84;;;2.89;68.73
74544;BME280;63016;55.030;38.710;2023-12-22T10:59:28;97706.72;;;2.83;68.52
74544;BME280;63016;55.030;38.710;2023-12-22T11:01:57;97702.72;;;2.81;68.85
74544;BME280;63016;55.030;38.710;2023-12-22T11:04:30;97701.94;;;2.80;68.77
74544;BME280;63016;55.030;38.710;2023-12-22T11:07:03;97704.50;;;2.80;68.93
74544;BME280;63016;55.030;38.710;2023-12-22T11:09:31;97699.97;;;2.82;69.03
74544;BME280;63016;55.030;38.710;2023-12-22T11:11:57;97700.59;;;2.84;68.79
74544;BME280;63016;55.030;38.710;2023-12-22T11:14:24;97695.78;;;2.81;68.96
74544;BME280;63016;55.030;38.710;2023-12-22T11:16:53;97701.94;;;2.80;68.82
74544;BME280;63016;55.030;38.710;2023-12-22T11:19:20;97698.53;;;2.80;68.80
74544;BME280;63016;55.030;38.710;2023-12-22T11:21:50;97694.34;;;2.79;69.14
74544;BME280;63016;55.030;38.710;2023-12-22T11:24:16;97686.97;;;2.76;68.28
74544;BME280;63016;55.030;38.710;2023-12-22T11:26:45;97689.72;;;2.74;68.69
74544;BME280;63016;55.030;38.710;2023-12-22T11:29:14;97688.28;;;2.72;68.75
74544;BME280;63016;55.030;38.710;2023-12-22T11:31:40;97686.50;;;2.72;68.62
74544;BME280;63016;55.030;38.710;2023-12-22T11:34:07;97684.13;;;2.71;69.03
74544;BME280;63016;55.030;38.710;2023-12-22T11:36:33;97679.91;;;2.70;68.77
74544;BME280;63016;55.030;38.710;2023-12-22T11:38:59;97680.09;;;2.68;68.73
74544;BME280;63016;55.030;38.710;2023-12-22T11:41:27;97681.53;;;2.71;68.73
74544;BME280;63016;55.030;38.710;2023-12-22T11:43:56;97681.41;;;2.64;68.67
74544;BME280;63016;55.030;38.710;2023-12-22T11:46:23;97673.34;;;2.67;68.47
74544;BME280;63016;55.030;38.710;2023-12-22T11:48:50;97680.09;;;2.68;68.53
74544;BME280;63016;55.030;38.710;2023-12-22T11:51:17;97672.38;;;2.68;69.15
74544;BME280;63016;55.030;38.710;2023-12-22T11:53:43;97663.19;;;2.66;68.48
74544;BME280;63016;55.030;38.710;2023-12-22T11:56:10;97669.31;;;2.65;68.81
74544;BME280;63016;55.030;38.710;2023-12-22T11:58:46;97658.41;;;2.63;68.46
74544;BME280;63016;55.030;38.710;2023-12-22T12:01:21;97654.56;;;2.58;69.04
74544;BME280;63016;55.030;38.710;2023-12-22T12:06:31;97642.16;;;2.62;68.71
74544;BME280;63016;55.030;38.710;2023-12-22T12:09:03;97644.09;;;2.60;68.54
74544;BME280;63016;55.030;38.710;2023-12-22T12:14:22;97644.88;;;2.61;68.67
74544;BME280;63016;55.030;38.710;2023-12-22T12:16:48;97633.97;;;2.58;68.43
74544;BME280;63016;55.030;38.710;2023-12-22T12:19:14;97634.47;;;2.54;68.42
74544;BME280;63016;55.030;38.710;2023-12-22T12:21:40;97643.50;;;2.50;68.59
74544;BME280;63016;55.030;38.710;2023-12-22T12:24:05;97639.50;;;2.47;68.67
74544;BME280;63016;55.030;38.710;2023-12-22T12:26:33;97632.09;;;2.52;68.92
74544;BME280;63016;55.030;38.710;2023-12-22T12:28:59;97634.31;;;2.55;69.14
74544;BME280;63016;55.030;38.710;2023-12-22T12:31:37;97625.78;;;2.55;68.43
74544;BME280;63016;55.030;38.710;2023-12-22T12:34:04;97630.31;;;2.53;68.76
74544;BME280;63016;55.030;38.710;2023-12-22T12:36:31;97621.13;;;2.50;68.79
74544;BME280;63016;55.030;38.710;2023-12-22T12:39:07;97618.25;;;2.53;68.93
74544;BME280;63016;55.030;38.710;2023-12-22T12:41:36;97611.66;;;2.51;68.73
74544;BME280;63016;55.030;38.710;2023-12-22T12:44:06;97608.63;;;2.47;68.40
74544;BME280;63016;55.030;38.710;2023-12-22T12:46:35;97621.13;;;2.50;68.81
74544;BME280;63016;55.030;38.710;2023-12-22T12:49:08;97615.84;;;2.52;68.65
74544;BME280;63016;55.030;38.710;2023-12-22T12:51:44;97611.66;;;2.51;69.15
74544;BME280;63016;55.030;38.710;2023-12-22T12:54:11;97612.44;;;2.51;68.96
74544;BME280;63016;55.030;38.710;2023-12-22T12:56:44;97612.28;;;2.53;69.11
74544;BME280;63016;55.030;38.710;2023-12-22T12:59:11;97619.38;;;2.51;68.75
74544;BME280;63016;55.030;38.710;2023-12-22T13:01:41;97612.44;;;2.51;69.15
74544;BME280;63016;55.030;38.710;2023-12-22T13:04:07;97601.19;;;2.52;69.15
74544;BME280;63016;55.030;38.710;2023-12-22T13:06:33;97590.09;;;2.52;69.02
74544;BME280;63016;55.030;38.710;2023-12-22T13:08:59;97588.47;;;2.51;68.89